Austin, TX (78731)

1:44 PM CDT on September 18, 2014 (GMT -0500)
Northwest Hills - Real Green Weather Network | Change Station
CLOSE
Current Station
Personal Weather Station
Location: Austin, TX
Elevation: 912 ft
Nearby Weather Stations

Elev 912 ft 30.36 °N, 97.76 °W | Updated 0 second ago

Scattered Clouds
Scattered Clouds
85.4 °F
Feels Like 92 °F
N
1.0
Wind Variable Wind from ESE
Gusts 4.0 mph

Today
High -- | Low -- °F
--% Chance of Precip.
Yesterday
High -- | Low -- °F
Precip. -- in
7:17 AM 7:32 PM
Waning Crescent, 25% visible
Pressure 29.89 in
Visibility 10.0 miles
Clouds Scattered Clouds 2900 ft
Heat Index 92 °F
Dew Point 73 °F
Humidity 66%
Rainfall 4.19 in
Snow Depth Not available.
UV 6.6 out of 12
Pollen 2.70 out of 12
Ozone Good
PM2.5 Good
Flu Activity Not available.
SPECI KATT 181817Z AUTO VRB04KT 10SM SCT029 30/22 A2989 RMK AO2 T03000222

More Conditions Fewer Conditions

Pressure 29.89 in
Visibility 10.0 miles
Clouds Scattered Clouds 2900 ft
Heat Index 92 °F
Dew Point 73 °F
Humidity 66%
Rainfall 4.19 in
Snow Depth Not available.
UV 6.6 out of 12
Pollen 2.70 out of 12
Ozone Good
PM2.5 Good
Flu Activity Not available.
SPECI KATT 181817Z AUTO VRB04KT 10SM SCT029 30/22 A2989 RMK AO2 T03000222

More Conditions Fewer Conditions

Nowcast | as of 1:03 PM CDT on September 18, 2014

Flash Flood Watch in effect until 7 PM CDT this evening... Through 3 PM...showers and thunderstorms will develop and move toward the northeast. These storms will produce infrequent lightning and moderate rain. Rainfall totals will be up to half an inch.

×

10-Day Weather Forecast

Almanac

Astronomy

Sep. 18, 2014 Rise Set
Actual Time 7:17 AM CDT 7:32 PM CDT
Civil Twilight 6:53 AM CDT 7:56 PM CDT
Nautical Twilight 6:25 AM CDT 8:24 PM CDT
Astronomical Twilight 5:56 AM CDT 8:52 PM CDT
Moon 2:26 AM CDT 4:09 PM CDT
Length of Visible Light 13h 03m
Length of Day
12h 15m
Tomorrow will be 1m 49s shorter.
Waning Crescent, 25% of the Moon is Illuminated
Today
Waning Crescent
Sep 24
New
Oct 1
First Quarter
Oct 8
Full
Oct 15
Last Quarter

Today's Extremes

State Highs State Lows

Community

WunderPhotos

Upload Photos

1,754,417 photos uploaded!

WunderBlogs® & News

Nearby

Air Quality

  Air Quality AQ Index Pollutant
Yesterday Good
OZONE
Yesterday Good
PM2.5
Current Good
OZONE
Current Good
PM2.5
Thursday Good
OZONE
Thursday Good
PM10
Friday Good
OZONE
Friday Good
PM10
Saturday Good
OZONE
Saturday Good
PM10
Sunday Good
OZONE
Sunday Good
PM10

Snow Depth

Station Depth Elevation
No new snow has been reported.

Earthquake Activity

City Distance Mag. Time & Date
No recent earthquake activity has been reported nearby.
Minimum magnitude displayed is 2.5.

Coastal Water Temperatures

Place Temperature
No Stations Reporting

Nearby Weather Stations